createdAt,value
2022-10-11T00:00:10.795Z,2.03
2022-10-11T00:02:37.604Z,1.67
2022-10-11T00:05:04.722Z,1.70
2022-10-11T00:07:31.625Z,1.80
2022-10-11T00:09:58.404Z,1.50
2022-10-11T00:12:25.478Z,1.90
2022-10-11T00:14:52.297Z,1.60
2022-10-11T00:17:19.184Z,1.65
2022-10-11T00:19:46.562Z,2.35
2022-10-11T00:22:13.404Z,2.47
2022-10-11T00:24:40.291Z,1.88
2022-10-11T00:27:07.298Z,4.65
2022-10-11T00:29:34.303Z,2.85
2022-10-11T00:32:01.113Z,3.13
2022-10-11T00:34:27.935Z,3.95
2022-10-11T00:36:54.739Z,2.00
2022-10-11T00:39:21.702Z,1.77
2022-10-11T00:41:49.419Z,1.75
2022-10-11T00:44:20.536Z,2.00
2022-10-11T00:46:56.166Z,1.88
2022-10-11T00:49:33.106Z,1.80
2022-10-11T00:52:04.664Z,1.70
2022-10-11T00:54:36.256Z,1.50
2022-10-11T00:57:07.225Z,1.70
2022-10-11T00:59:42.068Z,1.83
2022-10-11T01:02:13.223Z,1.77
2022-10-11T01:04:41.238Z,1.77
2022-10-11T01:07:10.318Z,1.75
2022-10-11T01:09:37.136Z,1.83
2022-10-11T01:12:12.213Z,1.70
2022-10-11T01:15:08.320Z,1.73
2022-10-11T01:18:21.221Z,1.80
2022-10-11T01:20:53.935Z,1.58
2022-10-11T01:23:39.336Z,3.08
2022-10-11T01:26:41.165Z,4.13
2022-10-11T01:29:41.546Z,2.17
2022-10-11T01:32:19.249Z,1.92
2022-10-11T01:34:58.693Z,1.88
2022-10-11T01:37:40.284Z,1.52
2022-10-11T01:40:09.797Z,1.70
2022-10-11T01:42:39.412Z,1.80
2022-10-11T01:45:10.892Z,1.80
2022-10-11T01:47:39.114Z,1.73
2022-10-11T01:50:08.141Z,1.70
2022-10-11T01:52:40.991Z,1.75
2022-10-11T01:55:18.998Z,2.00
2022-10-11T01:57:45.797Z,1.73
2022-10-11T02:00:24.580Z,1.80
2022-10-11T02:03:03.493Z,1.85
2022-10-11T02:05:42.621Z,2.42
2022-10-11T02:08:37.190Z,1.83
2022-10-11T02:11:26.410Z,2.10
2022-10-11T02:14:02.195Z,1.80
2022-10-11T02:16:37.023Z,2.08
2022-10-11T02:19:06.753Z,2.10
2022-10-11T02:21:36.356Z,1.98
2022-10-11T02:24:15.029Z,2.05
2022-10-11T02:26:46.335Z,2.35
2022-10-11T02:29:15.797Z,1.70
2022-10-11T02:31:45.205Z,2.13
2022-10-11T02:34:16.810Z,2.40
2022-10-11T02:36:52.332Z,2.40
2022-10-11T02:39:25.454Z,2.00
2022-10-11T02:41:57.808Z,2.00
2022-10-11T02:44:33.138Z,2.20
2022-10-11T02:47:01.691Z,2.00
2022-10-11T02:49:31.108Z,5.75
2022-10-11T02:51:59.132Z,2.65
2022-10-11T02:54:27.041Z,2.30
2022-10-11T02:56:53.992Z,2.35
2022-10-11T02:59:20.840Z,2.20
2022-10-11T03:01:47.708Z,2.50
2022-10-11T03:04:14.783Z,2.28
2022-10-11T03:06:41.586Z,2.33
2022-10-11T03:09:08.458Z,2.20
2022-10-11T03:11:35.314Z,3.00
2022-10-11T03:14:02.208Z,2.33
2022-10-11T03:16:29.047Z,2.40
2022-10-11T03:18:55.849Z,2.83
2022-10-11T03:21:25.096Z,2.65
2022-10-11T03:23:51.969Z,2.70
2022-10-11T03:26:18.760Z,2.60
2022-10-11T03:28:45.643Z,2.40
2022-10-11T03:31:12.568Z,2.63
2022-10-11T03:33:40.619Z,2.53
2022-10-11T03:36:09.142Z,2.58
2022-10-11T03:38:36.348Z,2.33
2022-10-11T03:41:03.151Z,3.03
2022-10-11T03:43:30.178Z,2.50
2022-10-11T03:45:57.047Z,2.58
2022-10-11T03:48:23.873Z,2.88
2022-10-11T03:50:50.742Z,2.53
2022-10-11T03:53:17.607Z,2.38
2022-10-11T03:55:44.491Z,2.47
2022-10-11T03:58:11.385Z,2.53
2022-10-11T04:00:39.392Z,2.72
2022-10-11T04:03:06.222Z,2.60
2022-10-11T04:05:33.125Z,2.63
2022-10-11T04:07:59.967Z,2.33
2022-10-11T04:10:27.029Z,2.90
2022-10-11T04:12:53.862Z,2.78
2022-10-11T04:15:20.831Z,2.60
2022-10-11T04:17:47.641Z,2.30
2022-10-11T04:20:14.511Z,2.47
2022-10-11T04:22:41.359Z,2.47
2022-10-11T04:25:09.157Z,2.88
2022-10-11T04:27:36.216Z,4.75
2022-10-11T04:30:04.008Z,4.05
2022-10-11T04:32:30.874Z,3.47
2022-10-11T04:34:57.685Z,3.30
2022-10-11T04:37:24.556Z,3.17
2022-10-11T04:39:51.405Z,2.70
2022-10-11T04:42:18.219Z,3.33
2022-10-11T04:44:45.012Z,2.92
2022-10-11T04:47:12.041Z,2.90
2022-10-11T04:49:39.099Z,2.90
2022-10-11T04:52:06.186Z,2.50
2022-10-11T04:54:33.005Z,3.00
2022-10-11T04:56:59.833Z,3.45
2022-10-11T04:59:26.715Z,3.40
2022-10-11T05:01:53.596Z,2.95
2022-10-11T05:04:20.512Z,2.70
2022-10-11T05:06:47.416Z,3.00
2022-10-11T05:09:14.287Z,3.45
2022-10-11T05:11:41.095Z,3.35
2022-10-11T05:14:07.942Z,3.00
2022-10-11T05:16:34.838Z,3.30
2022-10-11T05:19:01.681Z,3.00
2022-10-11T05:21:29.908Z,3.30
2022-10-11T05:23:57.482Z,3.75
2022-10-11T05:26:27.494Z,11.20
2022-10-11T05:28:55.393Z,3.97
2022-10-11T05:31:22.439Z,7.25
2022-10-11T05:33:49.530Z,3.60
2022-10-11T05:36:16.399Z,3.13
2022-10-11T05:38:43.500Z,3.08
2022-10-11T05:41:13.419Z,3.03
2022-10-11T05:43:40.262Z,2.95
2022-10-11T05:46:08.163Z,3.25
2022-10-11T05:48:35.177Z,3.10
2022-10-11T05:51:07.800Z,3.28
2022-10-11T05:53:34.627Z,3.20
2022-10-11T05:56:01.809Z,4.50
2022-10-11T05:58:29.081Z,6.03
2022-10-11T06:00:57.123Z,8.25
2022-10-11T06:03:24.234Z,3.60
2022-10-11T06:05:55.796Z,3.40
2022-10-11T06:08:23.698Z,3.20
2022-10-11T06:10:50.530Z,3.03
2022-10-11T06:13:17.362Z,3.47
2022-10-11T06:15:44.181Z,3.53
2022-10-11T06:18:10.982Z,4.30
2022-10-11T06:20:38.028Z,9.05
2022-10-11T06:23:04.871Z,4.70
2022-10-11T06:25:31.751Z,3.97
2022-10-11T06:27:58.649Z,3.60
2022-10-11T06:30:25.496Z,4.18
2022-10-11T06:32:52.277Z,3.88
2022-10-11T06:35:19.091Z,3.88
2022-10-11T06:37:45.909Z,4.10
2022-10-11T06:40:12.926Z,18.83
2022-10-11T06:42:39.781Z,5.00
2022-10-11T06:45:07.092Z,5.72
2022-10-11T06:47:34.058Z,4.35
2022-10-11T06:50:00.841Z,4.30
2022-10-11T06:52:27.708Z,4.80
2022-10-11T06:54:54.498Z,5.90
2022-10-11T06:57:21.411Z,5.13
2022-10-11T06:59:48.431Z,4.80
2022-10-11T07:02:15.241Z,8.45
2022-10-11T07:04:42.071Z,6.57
2022-10-11T07:07:08.891Z,4.47
2022-10-11T07:09:35.800Z,5.22
2022-10-11T07:12:02.661Z,4.28
2022-10-11T07:14:29.581Z,4.68
2022-10-11T07:16:57.346Z,4.70
2022-10-11T07:19:24.200Z,4.60
2022-10-11T07:21:51.205Z,4.88
2022-10-11T07:24:18.043Z,4.95
2022-10-11T07:26:44.907Z,4.68
2022-10-11T07:29:12.524Z,4.72
2022-10-11T07:31:41.215Z,4.43
2022-10-11T07:34:08.711Z,4.70
2022-10-11T07:36:36.022Z,4.47
2022-10-11T07:39:05.265Z,7.13
2022-10-11T07:41:32.141Z,4.80
2022-10-11T07:43:59.043Z,4.72
2022-10-11T07:46:25.888Z,6.22
2022-10-11T07:48:52.898Z,5.82
2022-10-11T07:51:21.631Z,5.72
2022-10-11T07:53:51.410Z,6.18
2022-10-11T07:56:20.712Z,5.65
2022-10-11T07:59:13.804Z,5.35
2022-10-11T08:01:40.734Z,5.97
2022-10-11T08:04:07.537Z,5.25
2022-10-11T08:06:36.600Z,10.50
2022-10-11T08:09:03.992Z,5.65
2022-10-11T08:11:36.092Z,6.35
2022-10-11T08:14:06.250Z,6.90
2022-10-11T08:16:33.124Z,7.38
2022-10-11T08:19:01.056Z,6.95
2022-10-11T08:21:27.863Z,6.45
2022-10-11T08:23:54.760Z,6.28
2022-10-11T08:26:22.206Z,8.15
2022-10-11T08:28:49.135Z,7.60
2022-10-11T08:31:16.520Z,12.40
2022-10-11T08:33:43.792Z,9.90
2022-10-11T08:36:11.643Z,6.97
2022-10-11T08:38:39.587Z,6.75
2022-10-11T08:41:25.638Z,6.63
2022-10-11T08:44:04.358Z,6.18
2022-10-11T08:46:35.173Z,6.90
2022-10-11T08:49:02.864Z,6.50
2022-10-11T08:51:38.642Z,6.40
2022-10-11T08:54:21.592Z,7.70
2022-10-11T08:56:49.757Z,6.97
2022-10-11T08:59:19.385Z,10.35
2022-10-11T09:02:07.032Z,9.10
2022-10-11T09:04:34.470Z,13.07
2022-10-11T09:07:13.595Z,8.65
2022-10-11T09:09:46.480Z,8.55
2022-10-11T09:12:31.837Z,7.68
2022-10-11T09:15:11.962Z,6.50
2022-10-11T09:17:59.530Z,7.03
2022-10-11T09:20:53.172Z,7.38
2022-10-11T09:23:56.214Z,7.28
2022-10-11T09:26:47.651Z,7.60
2022-10-11T09:29:37.611Z,8.15
2022-10-11T09:32:16.524Z,8.18
2022-10-11T09:34:43.807Z,8.10
2022-10-11T09:37:33.953Z,8.98
2022-10-11T09:40:09.843Z,8.65
2022-10-11T09:42:36.786Z,7.95
2022-10-11T09:45:14.548Z,9.07
2022-10-11T09:47:41.518Z,8.32
2022-10-11T09:50:18.818Z,9.35
2022-10-11T09:52:54.769Z,8.27
2022-10-11T09:55:41.563Z,7.82
2022-10-11T09:58:33.867Z,6.95
2022-10-11T10:01:08.539Z,8.63
2022-10-11T10:03:41.046Z,8.60
2022-10-11T10:06:26.089Z,7.82
2022-10-11T10:08:52.922Z,7.90
2022-10-11T10:11:19.948Z,8.45
2022-10-11T10:13:56.312Z,10.30
2022-10-11T10:16:33.032Z,9.43
2022-10-11T10:19:05.918Z,8.95
2022-10-11T10:21:34.717Z,8.63
2022-10-11T10:24:07.595Z,8.70
2022-10-11T10:26:35.257Z,8.32
2022-10-11T10:29:11.206Z,7.88
2022-10-11T10:32:12.997Z,7.85
2022-10-11T10:34:39.866Z,7.68
2022-10-11T10:37:34.019Z,8.70
2022-10-11T10:40:01.043Z,7.97
2022-10-11T10:42:28.604Z,8.38
2022-10-11T10:44:58.531Z,10.10
2022-10-11T10:47:52.172Z,8.48
2022-10-11T10:50:45.934Z,8.07
2022-10-11T10:53:37.734Z,7.72
2022-10-11T10:59:19.087Z,10.73
2022-10-11T11:02:38.522Z,8.20
2022-10-11T11:05:30.842Z,7.90
2022-10-11T11:08:16.336Z,7.00
2022-10-11T11:10:54.654Z,6.68
2022-10-11T11:13:42.361Z,6.25
2022-10-11T11:16:27.262Z,5.20
2022-10-11T11:19:18.808Z,5.57
2022-10-11T11:22:01.964Z,5.20
2022-10-11T11:24:28.741Z,4.90
2022-10-11T11:27:21.578Z,4.22
2022-10-11T11:29:57.519Z,3.92
2022-10-11T11:32:32.139Z,4.05
2022-10-11T11:35:15.922Z,4.63
2022-10-11T11:37:46.341Z,3.88
2022-10-11T11:40:17.808Z,5.70
2022-10-11T11:45:27.111Z,3.60
2022-10-11T11:48:08.019Z,3.35
2022-10-11T11:50:45.043Z,3.92
2022-10-11T11:53:19.106Z,5.72
2022-10-11T11:55:49.480Z,6.75
2022-10-11T11:58:37.309Z,4.53
2022-10-11T12:01:23.480Z,3.53
2022-10-11T12:03:55.652Z,1.83
2022-10-11T12:06:57.932Z,1.95
2022-10-11T12:09:28.098Z,1.88
2022-10-11T12:11:57.322Z,2.20
2022-10-11T12:14:33.390Z,2.15
2022-10-11T12:17:20.735Z,1.75
2022-10-11T12:20:00.219Z,1.85
2022-10-11T12:22:27.082Z,2.00
2022-10-11T12:25:21.249Z,2.10
2022-10-11T12:27:50.802Z,3.13
2022-10-11T12:30:48.797Z,2.47
2022-10-11T12:33:46.382Z,1.50
2022-10-11T12:36:32.421Z,1.83
2022-10-11T12:39:20.744Z,1.80
2022-10-11T12:41:47.681Z,2.10
2022-10-11T12:44:28.110Z,2.63
2022-10-11T12:46:54.894Z,2.97
2022-10-11T12:49:33.727Z,1.92
2022-10-11T12:52:18.980Z,2.03
2022-10-11T12:55:00.819Z,1.95
2022-10-11T12:57:47.460Z,2.00
2022-10-11T13:00:20.891Z,2.08
2022-10-11T13:02:49.070Z,1.60
2022-10-11T13:05:20.845Z,1.80
2022-10-11T13:07:48.543Z,2.47
2022-10-11T13:10:30.674Z,2.33
2022-10-11T13:13:00.175Z,1.65
2022-10-11T13:15:28.567Z,1.88
2022-10-11T13:18:00.117Z,2.55
2022-10-11T13:22:58.960Z,2.10
2022-10-11T13:25:36.268Z,1.33
2022-10-11T13:28:03.687Z,1.75
2022-10-11T13:30:34.427Z,1.90
2022-10-11T13:33:06.014Z,2.20
2022-10-11T13:38:02.085Z,1.77
2022-10-11T13:40:30.130Z,1.98
2022-10-11T13:42:57.512Z,1.95
2022-10-11T13:45:27.112Z,2.20
2022-10-11T13:47:55.088Z,3.05
2022-10-11T13:50:32.096Z,3.03
2022-10-11T13:53:24.657Z,2.70
2022-10-11T13:56:04.292Z,2.42
2022-10-11T13:58:44.874Z,2.00
2022-10-11T14:01:36.344Z,2.28
2022-10-11T14:04:06.446Z,6.30
2022-10-11T14:06:44.377Z,3.10
2022-10-11T14:09:33.919Z,2.30
2022-10-11T14:12:39.708Z,1.90
2022-10-11T14:15:34.626Z,2.28
2022-10-11T14:18:22.248Z,3.60
2022-10-11T14:20:49.153Z,3.00
2022-10-11T14:23:16.094Z,2.28
2022-10-11T14:25:42.967Z,3.80
2022-10-11T14:28:13.326Z,2.70
2022-10-11T14:30:41.585Z,3.92
2022-10-11T14:33:08.511Z,3.10
2022-10-11T14:35:35.539Z,6.90
2022-10-11T14:38:02.377Z,4.70
2022-10-11T14:40:31.662Z,7.85
2022-10-11T14:42:58.491Z,5.28
2022-10-11T14:45:25.926Z,3.90
2022-10-11T14:47:52.950Z,11.23
2022-10-11T14:50:28.810Z,3.58
2022-10-11T14:52:56.702Z,2.75
2022-10-11T14:55:24.567Z,2.40
2022-10-11T14:57:51.674Z,3.10
2022-10-11T15:00:24.213Z,2.67
2022-10-11T15:02:52.816Z,2.40
2022-10-11T15:05:20.808Z,2.70
2022-10-11T15:07:48.171Z,3.80
2022-10-11T15:10:23.818Z,2.65
2022-10-11T15:12:52.797Z,3.95
2022-10-11T15:15:22.804Z,3.85
2022-10-11T15:17:57.967Z,3.30
2022-10-11T15:20:37.312Z,2.97
2022-10-11T15:23:06.362Z,3.08
2022-10-11T15:25:33.252Z,4.10
2022-10-11T15:28:00.187Z,2.83
2022-10-11T15:30:30.394Z,3.65
2022-10-11T15:32:57.285Z,2.80
2022-10-11T15:35:25.718Z,2.47
2022-10-11T15:37:54.586Z,2.08
2022-10-11T15:40:22.988Z,3.22
2022-10-11T15:42:50.958Z,3.25
2022-10-11T15:45:19.498Z,3.10
2022-10-11T15:47:46.768Z,3.08
2022-10-11T15:50:35.224Z,3.30
2022-10-11T15:53:05.795Z,2.50
2022-10-11T15:55:35.040Z,2.78
2022-10-11T15:58:02.009Z,2.70
2022-10-11T16:00:30.641Z,2.50
2022-10-11T16:02:58.988Z,5.80
2022-10-11T16:05:27.345Z,9.13
2022-10-11T16:07:54.325Z,4.70
2022-10-11T16:10:22.022Z,3.65
2022-10-11T16:12:49.426Z,3.47
2022-10-11T16:15:16.663Z,3.13
2022-10-11T16:17:43.542Z,5.35
2022-10-11T16:20:10.453Z,4.05
2022-10-11T16:22:37.336Z,4.63
2022-10-11T16:25:05.308Z,3.90
2022-10-11T16:27:32.825Z,4.15
2022-10-11T16:30:00.692Z,3.58
2022-10-11T16:32:28.097Z,5.00
2022-10-11T16:34:54.990Z,3.90
2022-10-11T16:37:21.831Z,3.75
2022-10-11T16:39:48.700Z,6.65
2022-10-11T16:42:15.616Z,4.50
2022-10-11T16:44:42.440Z,4.35
2022-10-11T16:47:09.377Z,4.85
2022-10-11T16:49:36.360Z,4.07
2022-10-11T16:52:04.552Z,3.33
2022-10-11T16:54:32.225Z,4.03
2022-10-11T16:57:00.096Z,16.98
2022-10-11T16:59:27.584Z,5.85
2022-10-11T17:01:55.158Z,4.38
2022-10-11T17:04:22.223Z,5.05
2022-10-11T17:06:49.015Z,4.10
2022-10-11T17:09:16.575Z,3.55
2022-10-11T17:11:44.070Z,4.03
2022-10-11T17:14:13.234Z,4.10
2022-10-11T17:16:40.352Z,8.48
2022-10-11T17:19:15.431Z,5.30
2022-10-11T17:21:43.254Z,4.38
2022-10-11T17:24:10.136Z,6.40
2022-10-11T17:26:36.948Z,5.80
2022-10-11T17:29:03.928Z,6.50
2022-10-11T17:31:30.965Z,15.25
2022-10-11T17:34:00.168Z,6.75
2022-10-11T17:36:31.820Z,5.18
2022-10-11T17:39:05.161Z,5.68
2022-10-11T17:41:32.481Z,5.70
2022-10-11T17:44:00.183Z,5.60
2022-10-11T17:46:28.197Z,6.07
2022-10-11T17:48:55.694Z,5.78
2022-10-11T17:51:23.038Z,5.82
2022-10-11T17:53:50.974Z,6.57
2022-10-11T17:56:26.754Z,6.13
2022-10-11T17:58:57.053Z,5.88
2022-10-11T18:01:26.966Z,6.07
2022-10-11T18:04:00.120Z,5.07
2022-10-11T18:06:29.369Z,6.05
2022-10-11T18:08:59.172Z,5.53
2022-10-11T18:11:26.037Z,6.28
2022-10-11T18:13:53.590Z,4.68
2022-10-11T18:16:24.259Z,5.57
2022-10-11T18:18:51.263Z,5.75
2022-10-11T18:21:18.825Z,5.60
2022-10-11T18:23:46.278Z,7.32
2022-10-11T18:26:16.940Z,12.07
2022-10-11T18:28:44.707Z,7.95
2022-10-11T18:31:16.105Z,5.90
2022-10-11T18:33:45.571Z,5.00
2022-10-11T18:36:15.084Z,5.63
2022-10-11T18:38:46.458Z,5.38
2022-10-11T18:41:18.431Z,4.10
2022-10-11T18:44:06.195Z,4.10
2022-10-11T18:46:33.663Z,4.50
2022-10-11T18:49:03.501Z,4.18
2022-10-11T18:51:36.089Z,4.20
2022-10-11T18:54:04.320Z,4.00
2022-10-11T18:56:32.683Z,5.18
2022-10-11T18:59:00.127Z,3.63
2022-10-11T19:01:33.138Z,4.25
2022-10-11T19:04:01.894Z,3.90
2022-10-11T19:06:35.819Z,3.80
2022-10-11T19:09:11.823Z,3.65
2022-10-11T19:11:39.312Z,4.13
2022-10-11T19:14:11.085Z,3.55
2022-10-11T19:16:41.450Z,3.80
2022-10-11T19:19:10.345Z,4.57
2022-10-11T19:21:38.562Z,3.60
2022-10-11T19:24:05.570Z,4.05
2022-10-11T19:26:36.923Z,3.90
2022-10-11T19:29:07.888Z,4.18
2022-10-11T19:31:36.185Z,4.70
2022-10-11T19:34:03.450Z,4.55
2022-10-11T19:36:35.587Z,4.95
2022-10-11T19:39:05.612Z,5.60
2022-10-11T19:41:33.120Z,5.45
2022-10-11T19:43:59.982Z,5.85
2022-10-11T19:46:49.940Z,5.75
2022-10-11T19:49:17.657Z,5.47
2022-10-11T19:51:44.562Z,5.28
2022-10-11T19:54:13.602Z,5.38
2022-10-11T19:56:40.814Z,5.32
2022-10-11T19:59:07.721Z,5.95
2022-10-11T20:01:36.226Z,4.82
2022-10-11T20:04:06.787Z,5.05
2022-10-11T20:06:38.554Z,4.30
2022-10-11T20:11:54.309Z,5.00
2022-10-11T20:14:21.250Z,4.40
2022-10-11T20:16:50.500Z,4.32
2022-10-11T20:19:17.898Z,4.95
2022-10-11T20:21:45.291Z,3.88
2022-10-11T20:24:12.613Z,3.80
2022-10-11T20:26:39.858Z,3.78
2022-10-11T20:29:06.847Z,4.13
2022-10-11T20:31:38.064Z,4.10
2022-10-11T20:34:07.374Z,3.85
2022-10-11T20:36:36.139Z,3.85
2022-10-11T20:39:04.838Z,3.80
2022-10-11T20:41:34.266Z,3.40
2022-10-11T20:44:02.758Z,3.05
2022-10-11T20:46:32.330Z,3.70
2022-10-11T20:49:04.737Z,3.25
2022-10-11T20:51:33.766Z,3.28
2022-10-11T20:54:02.164Z,3.42
2022-10-11T20:56:29.940Z,2.85
2022-10-11T20:58:58.336Z,3.38
2022-10-11T21:01:34.482Z,3.78
2022-10-11T21:04:02.448Z,3.20
2022-10-11T21:06:30.836Z,3.63
2022-10-11T21:09:01.728Z,3.22
2022-10-11T21:11:30.149Z,3.22
2022-10-11T21:13:58.536Z,2.85
2022-10-11T21:16:25.992Z,3.63
2022-10-11T21:18:54.514Z,3.58
2022-10-11T21:21:23.935Z,3.47
2022-10-11T21:23:57.544Z,2.53
2022-10-11T21:26:24.576Z,3.30
2022-10-11T21:28:51.553Z,2.80
2022-10-11T21:31:20.317Z,3.60
2022-10-11T21:33:47.791Z,2.70
2022-10-11T21:36:20.049Z,2.85
2022-10-11T21:38:48.068Z,2.97
2022-10-11T21:41:17.461Z,2.83
2022-10-11T21:43:44.465Z,3.10
2022-10-11T21:46:14.011Z,3.30
2022-10-11T21:48:40.950Z,3.17
2022-10-11T21:51:24.034Z,3.17
2022-10-11T21:53:52.131Z,2.40
2022-10-11T21:56:19.534Z,2.67
2022-10-11T21:58:50.602Z,2.25
2022-10-11T22:01:18.884Z,3.35
2022-10-11T22:03:46.266Z,2.55
2022-10-11T22:06:13.860Z,2.65
2022-10-11T22:08:41.198Z,2.40
2022-10-11T22:11:08.705Z,2.45
2022-10-11T22:13:36.053Z,2.67
2022-10-11T22:16:08.276Z,2.67
2022-10-11T22:18:35.351Z,2.38
2022-10-11T22:21:05.671Z,2.88
2022-10-11T22:23:32.830Z,2.47
2022-10-11T22:26:05.081Z,3.15
2022-10-11T22:28:32.144Z,2.25
2022-10-11T22:30:59.629Z,2.00
2022-10-11T22:33:26.957Z,2.65
2022-10-11T22:35:55.181Z,2.10
2022-10-11T22:38:22.628Z,1.95
2022-10-11T22:40:49.605Z,2.42
2022-10-11T22:43:16.674Z,2.35
2022-10-11T22:45:43.761Z,1.92
2022-10-11T22:48:11.215Z,2.20
2022-10-11T22:50:38.594Z,2.10
2022-10-11T22:53:06.873Z,2.38
2022-10-11T22:55:34.475Z,3.00
2022-10-11T22:58:01.653Z,2.70
2022-10-11T23:00:28.548Z,2.28
2022-10-11T23:02:55.574Z,2.90
2022-10-11T23:05:22.495Z,2.38
2022-10-11T23:07:49.682Z,1.83
2022-10-11T23:10:16.779Z,2.33
2022-10-11T23:12:44.093Z,2.20
2022-10-11T23:15:12.209Z,2.15
2022-10-11T23:17:39.272Z,2.92
2022-10-11T23:20:06.975Z,2.00
2022-10-11T23:22:33.872Z,2.28
2022-10-11T23:25:00.770Z,2.00
2022-10-11T23:27:29.905Z,2.50
2022-10-11T23:29:56.793Z,2.08
2022-10-11T23:32:23.991Z,1.98
2022-10-11T23:34:51.673Z,2.33
2022-10-11T23:37:18.614Z,2.00
2022-10-11T23:39:45.592Z,1.95
2022-10-11T23:42:12.537Z,1.83
2022-10-11T23:44:39.556Z,1.77
2022-10-11T23:47:06.447Z,2.35
2022-10-11T23:49:33.426Z,1.83
2022-10-11T23:52:00.312Z,2.72
2022-10-11T23:54:27.183Z,2.92
2022-10-11T23:56:54.014Z,2.00
2022-10-11T23:59:21.003Z,1.92
